createdAt,value
2023-08-03T00:01:05.668Z,17.82
2023-08-03T00:03:33.097Z,17.78
2023-08-03T00:06:00.557Z,17.76
2023-08-03T00:08:27.815Z,17.75
2023-08-03T00:10:55.142Z,17.72
2023-08-03T00:13:22.182Z,17.72
2023-08-03T00:15:49.307Z,17.74
2023-08-03T00:18:16.614Z,17.72
2023-08-03T00:20:43.642Z,17.69
2023-08-03T00:23:10.743Z,17.66
2023-08-03T00:25:37.849Z,17.65
2023-08-03T00:28:05.046Z,17.64
2023-08-03T00:30:32.080Z,17.60
2023-08-03T00:32:59.183Z,17.54
2023-08-03T00:35:26.349Z,17.55
2023-08-03T00:37:54.804Z,17.51
2023-08-03T00:40:22.411Z,17.46
2023-08-03T00:42:49.552Z,17.38
2023-08-03T00:45:16.690Z,17.34
2023-08-03T00:47:43.920Z,17.31
2023-08-03T00:50:11.222Z,17.29
2023-08-03T00:52:39.326Z,17.23
2023-08-03T00:55:06.825Z,17.18
2023-08-03T00:57:33.925Z,17.15
2023-08-03T01:00:01.728Z,17.10
2023-08-03T01:02:28.966Z,17.16
2023-08-03T01:04:56.064Z,17.17
2023-08-03T01:07:25.053Z,17.16
2023-08-03T01:09:52.224Z,17.16
2023-08-03T01:12:19.536Z,17.21
2023-08-03T01:14:46.865Z,17.27
2023-08-03T01:17:14.005Z,17.28
2023-08-03T01:19:41.129Z,17.30
2023-08-03T01:22:10.451Z,17.35
2023-08-03T01:24:37.526Z,17.34
2023-08-03T01:27:04.707Z,17.35
2023-08-03T01:29:31.897Z,17.31
2023-08-03T01:32:00.583Z,17.33
2023-08-03T01:34:28.229Z,17.36
2023-08-03T01:36:55.800Z,17.39
2023-08-03T01:39:24.478Z,17.46
2023-08-03T01:41:51.907Z,17.41
2023-08-03T01:44:22.619Z,17.40
2023-08-03T01:46:50.055Z,17.30
2023-08-03T01:49:17.491Z,17.29
2023-08-03T01:51:44.805Z,17.26
2023-08-03T01:54:12.495Z,17.24
2023-08-03T01:56:39.907Z,17.14
2023-08-03T01:59:06.977Z,17.13
2023-08-03T02:01:34.163Z,17.10
2023-08-03T02:04:01.492Z,17.02
2023-08-03T02:06:28.674Z,16.96
2023-08-03T02:08:56.111Z,16.92
2023-08-03T02:11:23.145Z,16.93
2023-08-03T02:13:50.260Z,16.88
2023-08-03T02:16:24.469Z,16.87
2023-08-03T02:18:52.129Z,16.81
2023-08-03T02:21:19.443Z,16.74
2023-08-03T02:23:46.623Z,16.73
2023-08-03T02:26:13.726Z,16.70
2023-08-03T02:28:40.767Z,16.65
2023-08-03T02:31:07.860Z,16.51
2023-08-03T02:33:43.186Z,16.45
2023-08-03T02:36:10.911Z,16.43
2023-08-03T02:38:38.951Z,16.42
2023-08-03T02:41:06.129Z,16.32
2023-08-03T02:43:34.489Z,16.24
2023-08-03T02:46:03.322Z,16.16
2023-08-03T02:48:33.421Z,16.16
2023-08-03T02:51:03.904Z,16.13
2023-08-03T02:53:35.530Z,16.11
2023-08-03T02:56:03.549Z,16.08
2023-08-03T02:58:36.999Z,16.07
2023-08-03T03:01:12.662Z,16.06
2023-08-03T03:03:40.063Z,16.07
2023-08-03T03:06:08.421Z,16.02
2023-08-03T03:08:36.080Z,15.97
2023-08-03T03:11:03.276Z,15.96
2023-08-03T03:13:30.484Z,15.89
2023-08-03T03:15:57.830Z,15.93
2023-08-03T03:18:24.962Z,15.94
2023-08-03T03:20:52.162Z,15.97
2023-08-03T03:23:19.501Z,15.92
2023-08-03T03:25:46.551Z,15.88
2023-08-03T03:28:13.824Z,15.99
2023-08-03T03:30:41.399Z,16.03
2023-08-03T03:33:08.548Z,16.08
2023-08-03T03:35:39.489Z,16.10
2023-08-03T03:38:07.135Z,16.12
2023-08-03T03:40:34.995Z,16.13
2023-08-03T03:43:03.373Z,16.15
2023-08-03T03:45:32.162Z,16.11
2023-08-03T03:47:59.293Z,16.14
2023-08-03T03:50:26.816Z,16.16
2023-08-03T03:52:54.310Z,16.14
2023-08-03T03:55:22.224Z,16.18
2023-08-03T03:57:53.719Z,16.22
2023-08-03T04:00:23.881Z,16.20
2023-08-03T04:02:53.187Z,16.20
2023-08-03T04:05:22.452Z,16.24
2023-08-03T04:07:49.572Z,16.20
2023-08-03T04:10:16.723Z,16.13
2023-08-03T04:12:43.844Z,16.11
2023-08-03T04:15:11.103Z,16.10
2023-08-03T04:17:39.917Z,16.12
2023-08-03T04:20:11.078Z,16.11
2023-08-03T04:22:38.313Z,16.13
2023-08-03T04:25:06.061Z,16.11
2023-08-03T04:27:33.401Z,16.12
2023-08-03T04:30:00.578Z,16.14
2023-08-03T04:32:29.155Z,16.18
2023-08-03T04:34:56.215Z,16.20
2023-08-03T04:37:23.314Z,16.30
2023-08-03T04:39:50.976Z,16.37
2023-08-03T04:42:18.178Z,16.43
2023-08-03T04:44:45.644Z,16.47
2023-08-03T04:47:13.106Z,16.42
2023-08-03T04:49:41.031Z,16.38
2023-08-03T04:52:11.385Z,16.32
2023-08-03T04:54:38.961Z,16.23
2023-08-03T04:57:06.276Z,16.26
2023-08-03T04:59:38.006Z,16.18
2023-08-03T05:02:17.851Z,16.24
2023-08-03T05:04:49.121Z,16.21
2023-08-03T05:07:17.076Z,16.21
2023-08-03T05:09:46.985Z,16.26
2023-08-03T05:12:14.175Z,16.23
2023-08-03T05:14:41.626Z,16.24
2023-08-03T05:17:09.456Z,16.27
2023-08-03T05:19:36.642Z,16.29
2023-08-03T05:22:04.228Z,16.27
2023-08-03T05:24:34.779Z,16.26
2023-08-03T05:27:06.300Z,16.33
2023-08-03T05:29:36.393Z,16.36
2023-08-03T05:32:03.833Z,16.34
2023-08-03T05:34:32.279Z,16.37
2023-08-03T05:36:59.605Z,16.35
2023-08-03T05:39:31.453Z,16.37
2023-08-03T05:42:00.940Z,16.43
2023-08-03T05:44:29.123Z,16.44
2023-08-03T05:46:56.971Z,16.44
2023-08-03T05:49:25.787Z,16.38
2023-08-03T05:51:53.058Z,16.39
2023-08-03T05:54:24.234Z,16.37
2023-08-03T05:56:52.200Z,16.38
2023-08-03T05:59:21.525Z,16.34
2023-08-03T06:01:49.886Z,16.33
2023-08-03T06:04:25.298Z,16.35
2023-08-03T06:06:55.568Z,16.38
2023-08-03T06:09:25.496Z,16.50
2023-08-03T06:11:55.218Z,16.57
2023-08-03T06:14:22.702Z,16.62
2023-08-03T06:16:49.891Z,16.65
2023-08-03T06:19:19.761Z,16.71
2023-08-03T06:21:49.520Z,16.79
2023-08-03T06:24:22.149Z,16.84
2023-08-03T06:26:52.550Z,16.87
2023-08-03T06:29:20.038Z,16.89
2023-08-03T06:31:48.328Z,16.91
2023-08-03T06:34:16.218Z,16.94
2023-08-03T06:36:50.191Z,16.94
2023-08-03T06:39:17.445Z,17.00
2023-08-03T06:41:48.057Z,17.06
2023-08-03T06:44:21.102Z,17.18
2023-08-03T06:46:48.772Z,17.28
2023-08-03T06:49:24.238Z,17.43
2023-08-03T06:51:54.744Z,17.52
2023-08-03T06:54:22.700Z,17.67
2023-08-03T06:56:50.060Z,17.68
2023-08-03T06:59:22.602Z,17.73
2023-08-03T07:01:50.543Z,17.74
2023-08-03T07:04:18.141Z,17.79
2023-08-03T07:06:47.830Z,17.81
2023-08-03T07:09:18.065Z,17.80
2023-08-03T07:11:45.780Z,17.88
2023-08-03T07:14:18.366Z,17.98
2023-08-03T07:16:45.730Z,18.13
2023-08-03T07:19:14.639Z,18.22
2023-08-03T07:21:45.303Z,18.22
2023-08-03T07:24:13.144Z,18.26
2023-08-03T07:26:40.329Z,18.24
2023-08-03T07:29:10.644Z,18.28
2023-08-03T07:31:38.220Z,18.42
2023-08-03T07:34:05.525Z,18.53
2023-08-03T07:36:36.321Z,18.62
2023-08-03T07:39:04.145Z,18.65
2023-08-03T07:41:31.816Z,18.72
2023-08-03T07:44:01.857Z,18.76
2023-08-03T07:46:29.230Z,18.85
2023-08-03T07:48:57.243Z,18.96
2023-08-03T07:51:29.178Z,19.06
2023-08-03T07:53:57.558Z,19.09
2023-08-03T07:56:34.572Z,19.10
2023-08-03T07:59:08.845Z,19.12
2023-08-03T08:01:36.363Z,19.14
2023-08-03T08:04:04.368Z,19.14
2023-08-03T08:06:31.668Z,19.24
2023-08-03T08:08:59.279Z,19.31
2023-08-03T08:11:32.733Z,19.35
2023-08-03T08:14:01.171Z,19.37
2023-08-03T08:16:28.546Z,19.41
2023-08-03T08:18:55.957Z,19.45
2023-08-03T08:21:23.412Z,19.49
2023-08-03T08:23:51.798Z,19.49
2023-08-03T08:26:20.042Z,19.55
2023-08-03T08:29:00.119Z,19.59
2023-08-03T08:31:41.101Z,19.72
2023-08-03T08:34:16.904Z,19.75
2023-08-03T08:36:44.327Z,19.87
2023-08-03T08:39:11.833Z,20.00
2023-08-03T08:41:40.357Z,20.09
2023-08-03T08:44:07.717Z,20.23
2023-08-03T08:46:35.067Z,20.47
2023-08-03T08:49:06.036Z,20.49
2023-08-03T09:01:54.953Z,21.20
2023-08-03T09:04:34.197Z,21.22
2023-08-03T09:07:05.402Z,21.04
2023-08-03T09:09:37.249Z,20.97
2023-08-03T09:12:05.920Z,20.87
2023-08-03T09:14:49.742Z,20.72
2023-08-03T09:17:18.964Z,20.60
2023-08-03T09:25:10.388Z,19.78
2023-08-03T09:32:59.384Z,19.33
2023-08-03T09:35:27.287Z,19.37
2023-08-03T09:37:55.888Z,19.42
2023-08-03T09:40:25.431Z,19.53
2023-08-03T09:40:47.385Z,19.52
2023-08-03T09:42:54.056Z,19.56
2023-08-03T09:47:53.460Z,19.79
2023-08-03T09:50:21.006Z,19.90
2023-08-03T09:52:49.774Z,19.95
2023-08-03T09:55:23.040Z,19.98
2023-08-03T09:58:02.751Z,20.04
2023-08-03T10:00:31.279Z,20.14
2023-08-03T10:03:11.264Z,20.27
2023-08-03T10:05:41.710Z,20.52
2023-08-03T10:08:18.786Z,20.58
2023-08-03T10:10:50.176Z,20.56
2023-08-03T10:13:17.693Z,20.69
2023-08-03T10:15:44.963Z,20.83
2023-08-03T10:18:12.777Z,20.96
2023-08-03T10:20:40.238Z,21.32
2023-08-03T10:23:08.953Z,21.33
2023-08-03T10:25:51.575Z,21.15
2023-08-03T10:28:18.887Z,21.29
2023-08-03T10:31:08.843Z,21.37
2023-08-03T10:33:48.932Z,21.23
2023-08-03T10:36:31.823Z,21.10
2023-08-03T10:39:00.569Z,20.93
2023-08-03T10:41:28.874Z,21.03
2023-08-03T10:44:12.187Z,21.23
2023-08-03T10:46:41.244Z,21.34
2023-08-03T10:49:21.283Z,21.49
2023-08-03T10:51:53.228Z,21.75
2023-08-03T10:54:29.627Z,21.64
2023-08-03T10:57:10.001Z,21.53
2023-08-03T10:59:37.953Z,21.58
2023-08-03T11:02:27.680Z,21.65
2023-08-03T11:04:55.153Z,21.97
2023-08-03T11:07:29.561Z,22.17
2023-08-03T11:09:57.428Z,22.02
2023-08-03T11:12:25.998Z,22.12
2023-08-03T11:14:54.423Z,22.18
2023-08-03T11:17:23.495Z,22.38
2023-08-03T11:19:50.937Z,22.44
2023-08-03T11:22:18.232Z,22.58
2023-08-03T11:24:45.837Z,22.60
2023-08-03T11:27:14.337Z,22.80
2023-08-03T11:29:43.903Z,22.97
2023-08-03T11:32:13.433Z,23.24
2023-08-03T11:34:40.854Z,23.20
2023-08-03T11:37:08.901Z,23.05
2023-08-03T11:39:36.654Z,22.81
2023-08-03T11:42:07.977Z,21.96
2023-08-03T11:44:42.362Z,21.64
2023-08-03T11:47:17.731Z,21.64
2023-08-03T11:49:45.730Z,21.59
2023-08-03T11:52:23.134Z,21.61
2023-08-03T11:54:50.890Z,21.88
2023-08-03T11:57:36.734Z,22.08
2023-08-03T12:00:05.047Z,22.42
2023-08-03T12:02:44.802Z,22.58
2023-08-03T12:05:18.085Z,22.85
2023-08-03T12:10:26.214Z,22.54
2023-08-03T12:13:00.784Z,22.82
2023-08-03T12:17:56.165Z,22.99
2023-08-03T12:20:26.997Z,23.11
2023-08-03T12:22:54.966Z,23.15
2023-08-03T12:25:22.758Z,23.27
2023-08-03T12:27:50.290Z,23.40
2023-08-03T12:30:17.792Z,23.47
2023-08-03T12:32:45.390Z,23.83
2023-08-03T12:35:12.702Z,24.00
2023-08-03T12:37:40.147Z,23.86
2023-08-03T12:40:07.854Z,23.78
2023-08-03T12:42:35.049Z,23.82
2023-08-03T12:45:02.380Z,23.73
2023-08-03T12:47:36.425Z,23.71
2023-08-03T12:50:07.553Z,23.55
2023-08-03T12:52:34.793Z,23.42
2023-08-03T12:55:02.153Z,23.05
2023-08-03T12:57:29.633Z,22.67
2023-08-03T12:59:57.111Z,22.82
2023-08-03T13:02:25.206Z,22.76
2023-08-03T13:04:54.221Z,22.60
2023-08-03T13:07:21.812Z,22.62
2023-08-03T13:09:49.122Z,22.73
2023-08-03T13:12:16.774Z,22.86
2023-08-03T13:14:43.892Z,22.86
2023-08-03T13:17:11.334Z,22.96
2023-08-03T13:19:42.109Z,23.17
2023-08-03T13:22:09.300Z,23.43
2023-08-03T13:24:36.735Z,23.15
2023-08-03T13:27:13.979Z,22.96
2023-08-03T13:29:44.105Z,22.84
2023-08-03T13:32:13.431Z,22.55
2023-08-03T13:34:46.654Z,22.21
2023-08-03T13:37:33.882Z,22.06
2023-08-03T13:40:01.051Z,21.81
2023-08-03T13:42:28.602Z,21.50
2023-08-03T13:44:57.211Z,21.06
2023-08-03T13:47:24.486Z,21.21
2023-08-03T13:49:51.821Z,21.03
2023-08-03T13:52:19.187Z,21.08
2023-08-03T13:54:46.778Z,21.17
2023-08-03T13:57:14.325Z,21.40
2023-08-03T13:59:41.770Z,21.70
2023-08-03T14:02:11.354Z,21.85
2023-08-03T14:04:39.330Z,22.09
2023-08-03T14:09:38.075Z,22.57
2023-08-03T14:12:06.434Z,22.64
2023-08-03T14:17:05.099Z,22.76
2023-08-03T14:19:32.335Z,23.11
2023-08-03T14:21:59.726Z,23.45
2023-08-03T14:24:27.433Z,23.59
2023-08-03T14:26:56.987Z,23.50
2023-08-03T14:29:24.417Z,23.28
2023-08-03T14:31:51.796Z,22.61
2023-08-03T14:34:19.492Z,21.41
2023-08-03T14:36:47.787Z,21.11
2023-08-03T14:39:17.354Z,20.54
2023-08-03T14:41:48.668Z,20.54
2023-08-03T14:44:20.574Z,20.43
2023-08-03T14:46:48.750Z,20.36
2023-08-03T14:49:19.213Z,20.31
2023-08-03T14:54:50.468Z,20.60
2023-08-03T14:57:23.498Z,20.84
2023-08-03T14:59:50.960Z,20.88
2023-08-03T15:02:21.324Z,21.09
2023-08-03T15:04:49.675Z,21.35
2023-08-03T15:07:17.345Z,21.62
2023-08-03T15:09:48.085Z,21.63
2023-08-03T15:12:15.666Z,21.41
2023-08-03T15:17:25.325Z,21.66
2023-08-03T15:22:25.252Z,21.58
2023-08-03T15:24:53.162Z,21.43
2023-08-03T15:27:24.816Z,21.28
2023-08-03T15:29:55.860Z,21.15
2023-08-03T15:35:25.436Z,20.51
2023-08-03T15:37:58.444Z,20.24
2023-08-03T15:41:03.495Z,20.00
2023-08-03T15:43:37.475Z,19.90
2023-08-03T15:49:21.060Z,19.58
2023-08-03T15:51:52.329Z,19.59
2023-08-03T15:54:29.941Z,19.50
2023-08-03T15:56:58.489Z,19.54
2023-08-03T15:59:26.070Z,19.52
2023-08-03T16:01:54.946Z,19.67
2023-08-03T16:04:22.308Z,19.85
2023-08-03T16:06:49.822Z,19.96
2023-08-03T16:09:17.076Z,20.07
2023-08-03T16:14:15.310Z,19.88
2023-08-03T16:16:42.950Z,19.82
2023-08-03T16:19:10.486Z,19.70
2023-08-03T16:21:44.053Z,19.59
2023-08-03T16:24:13.434Z,19.39
2023-08-03T16:29:53.793Z,19.25
2023-08-03T16:33:07.855Z,19.28
2023-08-03T16:35:42.408Z,19.31
2023-08-03T16:41:16.760Z,19.27
2023-08-03T16:46:38.088Z,19.29
2023-08-03T16:55:02.406Z,19.19
2023-08-03T16:57:30.729Z,19.21
2023-08-03T16:59:58.077Z,19.12
2023-08-03T17:02:26.141Z,19.09
2023-08-03T17:04:53.683Z,19.10
2023-08-03T17:07:47.191Z,19.14
2023-08-03T17:10:14.911Z,19.14
2023-08-03T17:16:16.206Z,19.38
2023-08-03T17:18:44.013Z,19.44
2023-08-03T17:21:11.386Z,19.46
2023-08-03T17:23:41.110Z,19.41
2023-08-03T17:26:08.546Z,19.36
2023-08-03T17:28:36.307Z,19.22
2023-08-03T17:31:05.259Z,19.15
2023-08-03T17:33:34.341Z,19.04
2023-08-03T17:36:11.774Z,18.98
2023-08-03T17:38:39.371Z,18.94
2023-08-03T17:41:06.698Z,18.90
2023-08-03T17:43:34.554Z,18.89
2023-08-03T17:46:08.799Z,18.82
2023-08-03T17:51:47.673Z,18.76
2023-08-03T17:54:42.893Z,18.76
2023-08-03T17:57:10.374Z,18.69
2023-08-03T17:59:37.923Z,18.72
2023-08-03T18:02:05.663Z,18.66
2023-08-03T18:04:33.759Z,18.68
2023-08-03T18:07:01.384Z,18.67
2023-08-03T18:09:29.970Z,18.70
2023-08-03T18:11:57.481Z,18.68
2023-08-03T18:14:24.743Z,18.71
2023-08-03T18:16:52.243Z,18.70
2023-08-03T18:19:20.375Z,18.66
2023-08-03T18:21:54.098Z,18.64
2023-08-03T18:24:22.021Z,18.60
2023-08-03T18:26:49.646Z,18.63
2023-08-03T18:29:16.854Z,18.59
2023-08-03T18:34:42.758Z,18.60
2023-08-03T18:40:21.631Z,18.49
2023-08-03T18:42:49.363Z,18.49
2023-08-03T18:48:12.714Z,18.49
2023-08-03T18:50:58.266Z,18.44
2023-08-03T18:53:26.902Z,18.40
2023-08-03T18:55:54.854Z,18.36
2023-08-03T18:58:22.375Z,18.35
2023-08-03T19:00:49.694Z,18.36
2023-08-03T19:03:17.350Z,18.36
2023-08-03T19:05:44.785Z,18.33
2023-08-03T19:08:12.136Z,18.27
2023-08-03T19:10:40.862Z,18.25
2023-08-03T19:13:09.629Z,18.27
2023-08-03T19:19:21.145Z,18.23
2023-08-03T19:21:49.055Z,18.19
2023-08-03T19:24:27.321Z,18.09
2023-08-03T19:26:56.973Z,18.03
2023-08-03T19:29:24.349Z,17.96
2023-08-03T19:31:52.125Z,17.98
2023-08-03T19:34:19.607Z,17.91
2023-08-03T19:36:47.132Z,17.88
2023-08-03T19:39:14.702Z,17.83
2023-08-03T19:41:41.850Z,17.77
2023-08-03T19:44:09.213Z,17.78
2023-08-03T19:46:42.746Z,17.77
2023-08-03T19:50:26.724Z,17.71
2023-08-03T19:53:40.651Z,17.72
2023-08-03T20:07:38.768Z,17.55
2023-08-03T20:10:06.564Z,17.50
2023-08-03T20:17:34.999Z,17.34
2023-08-03T20:20:02.379Z,17.34
2023-08-03T20:22:30.804Z,17.21
2023-08-03T20:27:28.896Z,17.22
2023-08-03T20:32:29.066Z,17.16
2023-08-03T20:34:56.971Z,17.13
2023-08-03T20:37:27.062Z,17.08
2023-08-03T20:49:56.318Z,17.01
2023-08-03T20:52:23.977Z,17.00
2023-08-03T20:54:51.296Z,16.99
2023-08-03T20:57:20.788Z,16.95
2023-08-03T20:59:48.657Z,16.94
2023-08-03T21:02:16.037Z,16.88
2023-08-03T21:04:49.616Z,16.88
2023-08-03T21:07:17.870Z,16.85
2023-08-03T21:10:50.239Z,16.77
2023-08-03T21:12:49.077Z,16.77
2023-08-03T21:15:18.432Z,16.73
2023-08-03T21:17:45.704Z,16.73
2023-08-03T21:20:12.821Z,16.65
2023-08-03T21:22:40.643Z,16.64
2023-08-03T21:25:08.617Z,16.57
2023-08-03T21:27:36.964Z,16.52
2023-08-03T21:30:05.291Z,16.50
2023-08-03T21:32:35.208Z,16.47
2023-08-03T21:35:03.718Z,16.49
2023-08-03T21:39:58.810Z,16.51
2023-08-03T21:42:27.026Z,16.51
2023-08-03T21:44:54.321Z,16.51
2023-08-03T21:47:21.973Z,16.53
2023-08-03T21:49:49.337Z,16.54
2023-08-03T21:52:17.518Z,16.51
2023-08-03T21:54:45.123Z,16.55
2023-08-03T21:57:12.544Z,16.56
2023-08-03T21:59:39.968Z,16.60
2023-08-03T22:02:07.437Z,16.61
2023-08-03T22:04:34.565Z,16.58
2023-08-03T22:07:01.625Z,16.63
2023-08-03T22:09:28.729Z,16.63
2023-08-03T22:11:55.904Z,16.70
2023-08-03T22:14:23.107Z,16.64
2023-08-03T22:16:50.318Z,16.62
2023-08-03T22:19:17.621Z,16.63
2023-08-03T22:21:51.065Z,16.63
2023-08-03T22:24:20.027Z,16.60
2023-08-03T22:26:47.430Z,16.53
2023-08-03T22:29:14.629Z,16.52
2023-08-03T22:31:41.778Z,16.50
2023-08-03T22:34:08.925Z,16.47
2023-08-03T22:36:36.087Z,16.41
2023-08-03T22:39:03.251Z,16.37
2023-08-03T22:41:34.280Z,16.36
2023-08-03T22:44:01.545Z,16.33
2023-08-03T22:46:28.790Z,16.28
2023-08-03T22:48:56.125Z,16.21
2023-08-03T22:51:23.169Z,16.18
2023-08-03T22:53:50.268Z,16.15
2023-08-03T22:56:17.720Z,16.12
2023-08-03T22:58:45.075Z,16.13
2023-08-03T23:01:22.233Z,16.08
2023-08-03T23:03:50.168Z,16.08
2023-08-03T23:06:18.327Z,16.10
2023-08-03T23:08:45.560Z,16.13
2023-08-03T23:11:12.811Z,16.12
2023-08-03T23:13:40.405Z,16.13
2023-08-03T23:16:07.800Z,16.16
2023-08-03T23:18:35.490Z,16.18
2023-08-03T23:21:04.126Z,16.17
2023-08-03T23:23:31.619Z,16.18
2023-08-03T23:26:05.910Z,16.20
2023-08-03T23:28:33.462Z,16.20
2023-08-03T23:31:00.811Z,16.20
2023-08-03T23:33:28.529Z,16.20
2023-08-03T23:35:55.714Z,16.21
2023-08-03T23:38:22.885Z,16.23
2023-08-03T23:40:50.018Z,16.23
2023-08-03T23:43:17.069Z,16.26
2023-08-03T23:45:44.276Z,16.21
2023-08-03T23:48:11.446Z,16.19
2023-08-03T23:50:38.484Z,16.17
2023-08-03T23:53:05.673Z,16.13
2023-08-03T23:55:32.939Z,16.08
2023-08-03T23:58:00.051Z,16.03
